Time;durP1;ratioP1;P1;durP2;ratioP2;P2;SDS_P1;SDS_P2;PMS_P1;PMS_P2;Temp;Humidity;BMP_temperature;BMP_pressure;BME280_temperature;BME280_humidity;BME280_pressure;Samples;Min_cycle;Max_cycle;Signal;HPM_P1;HPM_P2
2022/11/16 00:00:22;;;;;;;13.25;7.03;;;13.00;92.50;;;;;;5055572;28;20033;-73
2022/11/16 00:02:51;;;;;;;12.27;6.60;;;13.00;92.50;;;;;;5038145;28;20041;-73
2022/11/16 00:05:17;;;;;;;11.57;6.75;;;13.00;92.60;;;;;;5055573;28;20036;-72
2022/11/16 00:07:44;;;;;;;11.20;6.45;;;13.00;92.90;;;;;;5055458;28;20085;-73
2022/11/16 00:10:10;;;;;;;12.10;6.85;;;13.00;92.50;;;;;;5038099;28;20036;-73
2022/11/16 00:12:37;;;;;;;12.15;6.55;;;13.00;92.40;;;;;;5055479;28;20033;-73
2022/11/16 00:15:03;;;;;;;11.55;6.75;;;13.00;92.50;;;;;;5055380;28;20032;-73
2022/11/16 00:17:29;;;;;;;11.50;7.07;;;13.00;92.50;;;;;;5055386;28;20388;-73
2022/11/16 00:19:54;;;;;;;11.93;7.00;;;13.00;92.50;;;;;;5055218;28;20033;-73
2022/11/16 00:22:20;;;;;;;12.13;6.75;;;13.00;92.50;;;;;;5055243;28;20160;-73
2022/11/16 00:24:46;;;;;;;11.23;6.70;;;13.00;92.40;;;;;;5054963;28;20026;-73
2022/11/16 00:27:12;;;;;;;12.18;6.95;;;13.10;92.50;;;;;;5055162;28;20018;-72
2022/11/16 00:29:37;;;;;;;13.45;7.57;;;13.00;92.40;;;;;;5037563;28;20032;-73
2022/11/16 00:32:03;;;;;;;14.45;7.55;;;13.00;92.60;;;;;;5055100;28;20029;-73
2022/11/16 00:34:29;;;;;;;12.95;7.72;;;13.00;92.60;;;;;;5054527;28;20049;-73
2022/11/16 00:36:54;;;;;;;15.50;7.90;;;13.00;92.60;;;;;;5037483;28;20056;-73
2022/11/16 00:39:20;;;;;;;10.15;6.18;;;13.00;92.70;;;;;;5054933;28;20034;-73
2022/11/16 00:41:46;;;;;;;13.48;7.13;;;12.90;92.80;;;;;;5054856;28;20033;-73
2022/11/16 00:44:13;;;;;;;13.02;7.68;;;13.00;92.80;;;;;;5054724;28;20108;-73
2022/11/16 00:46:39;;;;;;;14.02;8.02;;;13.00;92.70;;;;;;5054840;28;20073;-73
2022/11/16 00:49:04;;;;;;;13.73;7.55;;;13.00;92.80;;;;;;5054754;28;20013;-73
2022/11/16 00:51:31;;;;;;;13.80;7.82;;;13.00;92.70;;;;;;5054728;28;20029;-73
2022/11/16 00:53:56;;;;;;;11.48;6.85;;;13.00;92.60;;;;;;5054662;28;20077;-73
2022/11/16 00:56:22;;;;;;;15.02;7.72;;;13.10;92.60;;;;;;5054734;28;20036;-73
2022/11/16 00:58:48;;;;;;;15.15;7.93;;;13.10;92.50;;;;;;5054550;28;20032;-73
2022/11/16 01:01:14;;;;;;;17.20;7.85;;;13.10;92.60;;;;;;5054443;28;20030;-72
2022/11/16 01:03:40;;;;;;;14.27;7.68;;;13.00;92.70;;;;;;5020596;28;20030;-73
2022/11/16 01:06:08;;;;;;;14.65;8.40;;;13.10;92.80;;;;;;5037110;28;20049;-73
2022/11/16 01:08:36;;;;;;;14.05;8.10;;;13.10;92.80;;;;;;5054296;28;20022;-73
2022/11/16 01:13:47;;;;;;;13.73;6.72;;;12.90;93.20;;;;;;5054375;28;20146;-72
2022/11/16 01:16:15;;;;;;;14.35;7.40;;;12.90;93.40;;;;;;5054242;28;20049;-72
2022/11/16 01:18:41;;;;;;;14.27;7.97;;;12.90;93.40;;;;;;5036603;28;20056;-73
2022/11/16 01:21:07;;;;;;;13.32;8.40;;;12.90;93.80;;;;;;5054022;28;20026;-72
2022/11/16 01:23:32;;;;;;;13.07;7.75;;;12.80;93.70;;;;;;5054221;28;20033;-72
2022/11/16 01:26:01;;;;;;;13.75;7.53;;;12.90;93.70;;;;;;5054029;28;20029;-72
2022/11/16 01:28:29;;;;;;;14.05;7.80;;;12.90;93.50;;;;;;5036485;28;20036;-72
2022/11/16 01:30:54;;;;;;;13.60;7.50;;;13.00;93.30;;;;;;5053953;28;20032;-73
2022/11/16 01:33:20;;;;;;;13.30;7.40;;;13.00;93.10;;;;;;5036440;28;20029;-72
2022/11/16 01:35:46;;;;;;;12.05;7.05;;;13.00;93.00;;;;;;5053871;28;20044;-73
2022/11/16 01:38:12;;;;;;;11.80;6.60;;;13.00;93.10;;;;;;5036449;28;20064;-73
2022/11/16 01:40:38;;;;;;;12.02;7.00;;;13.00;93.10;;;;;;5036223;28;20030;-73
2022/11/16 01:43:22;;;;;;;10.52;6.80;;;13.00;92.90;;;;;;5053564;28;20064;-73
2022/11/16 01:45:48;;;;;;;11.57;5.97;;;13.00;92.80;;;;;;5053779;28;20018;-73
2022/11/16 01:48:24;;;;;;;10.32;6.35;;;13.00;92.80;;;;;;5052921;28;20032;-73
2022/11/16 01:50:51;;;;;;;10.48;5.82;;;13.00;92.70;;;;;;5053669;28;20033;-73
2022/11/16 01:53:20;;;;;;;10.20;6.30;;;13.00;92.60;;;;;;5053594;28;20025;-73
2022/11/16 01:55:47;;;;;;;11.05;5.85;;;13.10;92.60;;;;;;5053553;28;20057;-72
2022/11/16 01:58:17;;;;;;;12.75;6.45;;;13.10;92.50;;;;;;5036434;28;20388;-72
2022/11/16 02:00:43;;;;;;;10.10;5.50;;;13.10;92.50;;;;;;5053453;28;20033;-73
2022/11/16 02:03:09;;;;;;;9.85;5.68;;;13.10;92.60;;;;;;5053473;28;20025;-73
2022/11/16 02:06:19;;;;;;;10.73;5.55;;;13.10;92.50;;;;;;5053396;28;20030;-72
2022/11/16 02:12:20;;;;;;;9.63;5.55;;;13.10;92.40;;;;;;5053417;28;20033;-73
2022/11/16 02:14:52;;;;;;;9.85;5.95;;;13.10;92.50;;;;;;5032119;28;20044;-72
2022/11/16 02:17:35;;;;;;;9.70;6.18;;;13.10;92.50;;;;;;5053307;28;20037;-73
2022/11/16 02:20:24;;;;;;;12.55;6.88;;;13.00;92.60;;;;;;5035638;28;20034;-72
2022/11/16 02:23:33;;;;;;;9.70;5.82;;;13.10;92.60;;;;;;5053362;28;20018;-73
2022/11/16 02:26:21;;;;;;;11.18;6.32;;;13.10;92.70;;;;;;5039239;28;20038;-73
2022/11/16 02:29:05;;;;;;;9.75;6.00;;;13.10;92.60;;;;;;5053322;28;20044;-73
2022/11/16 02:31:39;;;;;;;13.02;6.95;;;13.10;92.50;;;;;;5053122;28;20033;-73
2022/11/16 02:34:08;;;;;;;11.07;6.53;;;13.00;92.60;;;;;;5053116;28;20045;-73
2022/11/16 02:36:35;;;;;;;11.05;6.60;;;13.10;92.60;;;;;;5053196;28;20049;-73
2022/11/16 02:39:06;;;;;;;11.60;6.63;;;13.10;92.60;;;;;;5053056;28;20036;-73
2022/11/16 02:41:36;;;;;;;12.55;6.75;;;13.10;92.60;;;;;;5053107;28;20025;-73
2022/11/16 02:44:19;;;;;;;11.85;6.63;;;13.10;92.60;;;;;;5052876;28;20037;-72
2022/11/16 02:46:49;;;;;;;12.57;7.15;;;13.10;92.90;;;;;;5053161;28;20079;-72
2022/11/16 02:49:17;;;;;;;11.73;6.88;;;13.10;92.70;;;;;;5053111;28;20041;-73
2022/11/16 02:51:46;;;;;;;11.13;6.85;;;13.00;92.80;;;;;;5052894;28;20030;-72
2022/11/16 02:54:17;;;;;;;12.02;6.70;;;13.00;93.20;;;;;;5052895;28;20017;-72
2022/11/16 02:57:00;;;;;;;11.57;7.10;;;13.00;93.20;;;;;;5052983;28;20026;-72
2022/11/16 02:59:37;;;;;;;14.02;6.88;;;13.00;93.20;;;;;;5055960;28;20021;-73
2022/11/16 03:02:11;;;;;;;10.73;6.90;;;13.00;93.10;;;;;;5055769;28;20045;-73
2022/11/16 03:04:44;;;;;;;15.45;7.75;;;13.00;93.20;;;;;;5056787;28;20053;-73
2022/11/16 03:07:15;;;;;;;11.82;6.82;;;13.00;93.10;;;;;;5039234;28;20045;-72
2022/11/16 03:09:41;;;;;;;13.27;7.18;;;13.00;93.10;;;;;;5056606;28;20029;-73
2022/11/16 03:12:12;;;;;;;14.30;7.57;;;13.10;92.90;;;;;;5039079;28;20121;-72
2022/11/16 03:14:49;;;;;;;13.85;7.50;;;13.10;92.80;;;;;;5039001;28;20022;-72
2022/11/16 03:17:24;;;;;;;10.73;6.68;;;13.10;92.90;;;;;;5056566;28;20018;-72
2022/11/16 03:20:21;;;;;;;12.80;7.22;;;13.00;93.30;;;;;;5056539;28;20040;-72
2022/11/16 03:22:53;;;;;;;11.70;7.03;;;13.00;93.40;;;;;;5055426;28;20022;-72
2022/11/16 03:25:20;;;;;;;;;;;13.00;93.20;;;;;;5056805;28;20025;-72
2022/11/16 03:27:59;;;;;;;12.82;6.57;;;13.00;93.30;;;;;;5022413;28;19932;-73
2022/11/16 03:30:28;;;;;;;11.52;6.25;;;12.90;93.50;;;;;;5056299;28;20022;-72
2022/11/16 03:32:58;;;;;;;14.35;7.53;;;12.90;93.60;;;;;;5056218;28;20026;-73
2022/11/16 03:35:29;;;;;;;11.63;7.07;;;13.00;93.40;;;;;;5056149;28;20036;-73
2022/11/16 03:37:57;;;;;;;11.93;6.82;;;13.10;93.30;;;;;;5056143;28;20021;-73
2022/11/16 03:40:26;;;;;;;11.50;6.80;;;13.10;93.10;;;;;;5038567;28;20033;-73
2022/11/16 03:42:54;;;;;;;11.05;6.63;;;13.10;93.20;;;;;;5055815;28;20045;-72
2022/11/16 03:45:20;;;;;;;10.15;6.18;;;13.10;93.20;;;;;;5055987;28;20018;-72
2022/11/16 03:47:45;;;;;;;10.10;6.20;;;13.10;93.20;;;;;;5055906;28;20022;-73
2022/11/16 03:50:11;;;;;;;9.57;5.40;;;13.10;93.20;;;;;;5055888;28;20037;-72
2022/11/16 03:52:37;;;;;;;9.48;5.78;;;13.00;93.10;;;;;;5055855;28;20037;-73
2022/11/16 03:55:03;;;;;;;10.30;5.75;;;13.00;93.10;;;;;;5038318;28;20033;-73
2022/11/16 03:57:29;;;;;;;9.63;5.85;;;12.90;93.20;;;;;;5055934;28;20029;-72
2022/11/16 03:59:55;;;;;;;10.43;5.75;;;12.90;93.30;;;;;;5055632;28;20113;-72
2022/11/16 04:02:20;;;;;;;10.85;6.05;;;12.90;93.30;;;;;;5055778;28;20038;-72
2022/11/16 04:24:31;;;;;;;9.18;5.05;;;12.80;93.20;;;;;;5048816;28;20380;-73
2022/11/16 04:30:06;;;;;;;8.30;4.78;;;12.80;93.00;;;;;;5033674;28;20038;-73
2022/11/16 04:38:01;;;;;;;7.28;4.10;;;12.80;92.70;;;;;;5055130;28;20080;-73
2022/11/16 04:40:28;;;;;;;6.25;3.80;;;12.70;92.70;;;;;;5054885;28;20026;-73
2022/11/16 04:42:56;;;;;;;6.07;3.80;;;12.60;92.80;;;;;;5037267;28;20056;-73
2022/11/16 04:48:07;;;;;;;5.75;3.38;;;12.60;92.60;;;;;;5054953;28;20036;-73
2022/11/16 04:50:33;;;;;;;5.78;3.10;;;12.60;92.60;;;;;;5054665;28;20033;-73
2022/11/16 04:52:58;;;;;;;5.75;2.83;;;12.50;92.40;;;;;;5054847;28;20026;-73
2022/11/16 04:55:24;;;;;;;3.92;2.50;;;12.50;92.30;;;;;;5037143;28;20033;-72
2022/11/16 04:57:50;;;;;;;4.82;2.13;;;12.50;92.30;;;;;;5037202;28;20033;-73
2022/11/16 05:00:16;;;;;;;4.78;1.95;;;12.40;92.20;;;;;;5054647;28;20025;-73
2022/11/16 05:02:42;;;;;;;4.82;2.20;;;12.50;92.10;;;;;;5037223;28;20029;-73
2022/11/16 05:05:08;;;;;;;3.30;2.17;;;12.50;91.80;;;;;;5054465;28;20030;-73
2022/11/16 05:07:33;;;;;;;3.95;1.95;;;12.40;91.90;;;;;;5036972;28;20492;-73
2022/11/16 05:09:59;;;;;;;4.18;2.20;;;12.40;91.90;;;;;;5036997;28;20021;-73
2022/11/16 05:12:26;;;;;;;5.07;1.88;;;12.50;91.80;;;;;;5036876;28;20045;-72
2022/11/16 05:14:53;;;;;;;2.35;1.58;;;12.40;91.70;;;;;;5054283;28;20021;-73
2022/11/16 05:17:20;;;;;;;4.47;1.85;;;12.30;91.70;;;;;;5054257;28;20033;-73
2022/11/16 05:22:29;;;;;;;4.53;1.80;;;12.30;91.70;;;;;;5054181;28;20064;-73
2022/11/16 05:24:56;;;;;;;3.80;1.58;;;12.30;91.70;;;;;;5054114;28;20037;-72
2022/11/16 05:27:24;;;;;;;4.32;1.83;;;12.40;91.60;;;;;;5054061;28;20500;-73
2022/11/16 05:29:50;;;;;;;3.35;1.60;;;12.30;91.50;;;;;;5054011;28;20017;-72
2022/11/16 05:32:18;;;;;;;3.28;1.63;;;12.30;91.50;;;;;;5053975;28;20025;-73
2022/11/16 05:34:44;;;;;;;2.45;1.52;;;12.40;91.50;;;;;;5053923;28;20021;-73
2022/11/16 05:37:09;;;;;;;4.28;1.85;;;12.40;91.40;;;;;;5053872;28;20032;-73
2022/11/16 05:39:35;;;;;;;3.10;1.52;;;12.40;91.40;;;;;;5053786;28;20041;-73
2022/11/16 05:42:01;;;;;;;2.05;1.50;;;12.40;91.40;;;;;;5036054;28;20033;-73
2022/11/16 05:44:26;;;;;;;3.83;1.52;;;12.40;91.40;;;;;;5036261;28;20045;-73
2022/11/16 05:46:54;;;;;;;5.22;1.73;;;12.30;91.30;;;;;;5036443;28;20033;-73
2022/11/16 05:49:19;;;;;;;3.72;1.70;;;12.40;91.30;;;;;;5053667;28;20017;-73
2022/11/16 05:51:46;;;;;;;6.50;1.70;;;12.30;91.20;;;;;;5036425;28;20057;-74
2022/11/16 05:54:13;;;;;;;3.03;2.03;;;12.30;91.10;;;;;;5053574;28;20077;-74
2022/11/16 05:56:39;;;;;;;2.85;1.50;;;12.40;91.10;;;;;;5053535;28;20026;-74
2022/11/16 05:59:05;;;;;;;6.10;1.88;;;12.40;91.10;;;;;;5053508;28;20032;-74
2022/11/16 06:01:31;;;;;;;4.40;1.70;;;12.40;91.00;;;;;;5053416;28;20041;-73
2022/11/16 06:04:01;;;;;;;3.45;1.95;;;12.30;90.80;;;;;;5035989;28;20385;-74
2022/11/16 06:06:27;;;;;;;5.28;1.50;;;12.30;90.70;;;;;;5036097;28;20034;-74
2022/11/16 06:08:53;;;;;;;3.13;1.63;;;12.20;90.70;;;;;;5053305;28;20029;-74
2022/11/16 06:11:19;;;;;;;2.00;1.45;;;12.20;90.50;;;;;;5053346;28;20064;-74
2022/11/16 06:13:45;;;;;;;3.47;1.77;;;12.20;90.40;;;;;;5035873;28;20021;-74
2022/11/16 06:16:11;;;;;;;4.57;1.50;;;12.10;90.20;;;;;;5053400;28;20044;-73
2022/11/16 06:18:42;;;;;;;5.10;1.70;;;12.00;90.10;;;;;;5036175;28;20035;-74
2022/11/16 06:21:08;;;;;;;6.18;1.88;;;11.90;90.50;;;;;;5053153;28;20105;-74
2022/11/16 06:23:34;;;;;;;4.38;1.50;;;11.80;89.70;;;;;;5053148;28;20021;-74
2022/11/16 06:26:00;;;;;;;3.20;1.73;;;11.70;89.60;;;;;;5035631;28;20025;-73
2022/11/16 06:28:26;;;;;;;5.30;1.80;;;11.70;90.10;;;;;;5035633;28;20041;-74
2022/11/16 06:30:52;;;;;;;6.75;1.73;;;11.60;90.10;;;;;;5053116;28;20025;-73
2022/11/16 06:33:18;;;;;;;2.97;1.85;;;11.60;90.20;;;;;;5056054;28;20033;-73
2022/11/16 06:35:44;;;;;;;5.55;2.33;;;11.50;90.20;;;;;;5042118;28;20455;-73
2022/11/16 06:38:09;;;;;;;5.30;1.90;;;11.50;90.10;;;;;;5059688;28;20021;-74
2022/11/16 06:40:36;;;;;;;4.07;1.98;;;11.50;90.20;;;;;;5059581;28;20085;-73
2022/11/16 06:43:03;;;;;;;5.10;2.15;;;11.50;90.20;;;;;;5041930;28;20053;-73
2022/11/16 06:45:28;;;;;;;5.35;1.83;;;11.50;90.30;;;;;;5059639;28;20029;-73
2022/11/16 06:47:54;;;;;;;4.72;2.10;;;11.50;90.30;;;;;;5059601;28;20030;-74
2022/11/16 06:50:19;;;;;;;3.85;2.08;;;11.50;90.30;;;;;;5042040;28;20041;-73
2022/11/16 06:52:46;;;;;;;4.30;1.85;;;11.50;90.30;;;;;;5059508;28;20040;-74
2022/11/16 06:55:12;;;;;;;6.03;2.22;;;11.50;90.40;;;;;;5059521;28;20025;-73
2022/11/16 06:57:38;;;;;;;3.75;2.08;;;11.50;90.30;;;;;;5059504;28;20040;-73
2022/11/16 07:00:05;;;;;;;4.72;2.30;;;11.50;90.10;;;;;;5059403;28;20022;-74
2022/11/16 07:02:30;;;;;;;6.00;2.10;;;11.50;90.20;;;;;;5025699;28;20029;-74
2022/11/16 07:04:56;;;;;;;3.80;2.25;;;11.40;90.00;;;;;;5041900;28;20033;-74
2022/11/16 07:07:22;;;;;;;5.85;2.50;;;11.30;90.10;;;;;;5059556;28;20029;-74
2022/11/16 07:09:47;;;;;;;6.18;2.53;;;11.30;90.30;;;;;;5059344;28;20036;-74
2022/11/16 07:12:13;;;;;;;5.05;2.53;;;11.20;90.40;;;;;;5059393;28;20028;-73
2022/11/16 07:14:38;;;;;;;5.60;2.65;;;11.10;90.30;;;;;;5059485;28;20530;-74
2022/11/16 07:17:05;;;;;;;5.05;2.97;;;11.00;90.40;;;;;;5059476;28;20032;-74
2022/11/16 07:19:30;;;;;;;5.80;2.95;;;11.00;90.50;;;;;;5059324;28;20026;-73
2022/11/16 07:21:56;;;;;;;5.93;2.58;;;10.90;90.60;;;;;;5059259;28;20037;-74
2022/11/16 07:24:21;;;;;;;5.85;2.78;;;10.90;90.70;;;;;;5025377;28;20029;-73
2022/11/16 07:26:47;;;;;;;4.97;2.70;;;10.90;90.80;;;;;;5059141;28;20029;-73
2022/11/16 07:29:14;;;;;;;8.38;3.45;;;10.80;91.00;;;;;;5059209;28;20092;-74
2022/11/16 07:31:40;;;;;;;7.43;3.28;;;10.80;91.00;;;;;;5041992;28;20526;-73
2022/11/16 07:34:05;;;;;;;7.38;3.38;;;10.80;91.30;;;;;;5041736;28;20033;-74
2022/11/16 07:36:31;;;;;;;6.18;2.90;;;10.70;91.30;;;;;;5041788;28;20064;-74
2022/11/16 07:38:56;;;;;;;8.35;2.90;;;10.80;91.40;;;;;;5041787;28;20029;-73
2022/11/16 07:41:22;;;;;;;7.35;2.75;;;10.80;91.40;;;;;;5041650;28;20512;-74
2022/11/16 07:43:48;;;;;;;5.07;3.33;;;10.80;91.70;;;;;;5041197;28;20061;-74
2022/11/16 07:46:19;;;;;;;5.47;3.28;;;10.80;91.50;;;;;;5056006;28;20029;-74
2022/11/16 07:48:44;;;;;;;5.95;3.38;;;10.80;91.40;;;;;;5038306;28;20049;-73
2022/11/16 07:51:13;;;;;;;6.07;3.20;;;10.70;91.70;;;;;;5037353;28;20085;-74
2022/11/16 07:53:40;;;;;;;5.50;2.95;;;10.70;91.80;;;;;;5037428;28;20029;-74
2022/11/16 07:56:06;;;;;;;5.13;2.78;;;10.70;92.10;;;;;;5055245;28;20437;-74
2022/11/16 07:58:33;;;;;;;9.13;3.40;;;10.70;92.10;;;;;;5055632;28;20064;-74
2022/11/16 08:01:08;;;;;;;4.38;2.35;;;10.70;92.20;;;;;;5055640;28;20159;-73
2022/11/16 08:03:34;;;;;;;11.32;2.85;;;10.70;92.10;;;;;;5055725;28;20025;-73
2022/11/16 08:06:02;;;;;;;5.90;2.75;;;10.70;92.00;;;;;;5055590;28;20026;-73
2022/11/16 08:08:28;;;;;;;8.18;3.00;;;10.80;91.90;;;;;;5055579;28;20022;-73
2022/11/16 08:11:01;;;;;;;10.10;2.70;;;10.90;91.80;;;;;;5055525;28;20037;-73
2022/11/16 08:13:27;;;;;;;6.70;2.83;;;11.10;91.40;;;;;;5055469;28;20022;-73
2022/11/16 08:15:53;;;;;;;6.75;3.10;;;11.50;91.20;;;;;;5055414;28;20025;-73
2022/11/16 08:18:19;;;;;;;8.50;2.67;;;12.00;90.00;;;;;;5037890;28;20022;-73
2022/11/16 08:20:45;;;;;;;11.98;2.60;;;12.30;88.10;;;;;;5055256;28;20053;-73
2022/11/16 08:23:10;;;;;;;7.35;3.10;;;12.60;86.80;;;;;;5021440;28;20030;-72
2022/11/16 08:25:36;;;;;;;5.10;2.30;;;12.90;85.10;;;;;;5055278;28;20036;-73
2022/11/16 08:28:05;;;;;;;5.72;1.92;;;12.90;84.20;;;;;;5055344;28;20022;-73
2022/11/16 08:30:31;;;;;;;4.35;2.30;;;13.10;83.80;;;;;;5036554;28;20448;-73
2022/11/16 08:32:56;;;;;;;43.35;18.10;;;13.40;82.50;;;;;;5055043;28;20044;-73
2022/11/16 08:35:22;;;;;;;7.53;2.40;;;13.50;80.70;;;;;;5037737;28;20029;-73
2022/11/16 08:37:47;;;;;;;6.78;1.95;;;13.60;81.10;;;;;;5055006;28;20045;-73
2022/11/16 08:40:13;;;;;;;9.57;2.10;;;13.80;80.20;;;;;;5037508;28;20029;-73
2022/11/16 08:42:39;;;;;;;5.45;2.35;;;14.00;79.70;;;;;;5054701;28;20129;-73
2022/11/16 08:45:05;;;;;;;4.88;1.90;;;14.30;79.10;;;;;;5054928;28;20022;-73
2022/11/16 08:47:31;;;;;;;5.38;2.25;;;14.40;76.90;;;;;;5037518;28;20029;-71
2022/11/16 08:49:57;;;;;;;8.95;2.03;;;14.40;77.60;;;;;;5054781;28;20030;-74
2022/11/16 08:52:22;;;;;;;8.63;1.80;;;14.50;76.50;;;;;;5037233;28;20057;-74
2022/11/16 08:54:48;;;;;;;7.60;1.85;;;14.50;75.80;;;;;;5054726;28;20021;-73
2022/11/16 08:57:13;;;;;;;7.38;2.03;;;14.50;75.60;;;;;;5036827;28;20030;-73
2022/11/16 08:59:39;;;;;;;4.75;1.85;;;14.60;75.40;;;;;;5054618;28;20052;-73
2022/11/16 09:02:05;;;;;;;9.40;2.28;;;14.70;75.50;;;;;;5036947;28;20045;-74
2022/11/16 09:04:30;;;;;;;5.47;1.60;;;14.90;74.80;;;;;;5037031;28;20093;-73
2022/11/16 09:06:56;;;;;;;5.25;2.05;;;14.90;74.20;;;;;;5054460;28;20043;-74
2022/11/16 09:09:22;;;;;;;6.30;2.13;;;14.80;74.20;;;;;;5054330;28;20018;-74
2022/11/16 09:11:50;;;;;;;7.65;2.00;;;14.80;74.40;;;;;;5054371;28;20373;-74
2022/11/16 09:14:16;;;;;;;5.97;2.30;;;14.90;74.90;;;;;;5037362;28;20021;-73
2022/11/16 09:16:41;;;;;;;5.80;2.00;;;14.90;73.90;;;;;;5036850;28;20052;-74
2022/11/16 09:19:07;;;;;;;26.33;12.23;;;15.10;74.00;;;;;;5036874;28;20082;-74
2022/11/16 09:21:35;;;;;;;6.10;1.48;;;15.10;72.90;;;;;;5054116;28;20029;-74
2022/11/16 09:24:01;;;;;;;6.43;1.42;;;15.00;73.10;;;;;;5054162;28;20018;-74
2022/11/16 09:26:27;;;;;;;3.85;1.50;;;15.20;73.60;;;;;;5020266;28;20037;-74
2022/11/16 09:28:57;;;;;;;3.90;1.50;;;15.20;72.90;;;;;;5036679;28;20037;-73
2022/11/16 09:31:26;;;;;;;4.43;1.40;;;15.10;72.30;;;;;;5054153;28;20032;-73
2022/11/16 09:33:51;;;;;;;4.47;1.45;;;14.90;73.30;;;;;;5053973;28;20038;-74
2022/11/16 09:36:17;;;;;;;8.40;1.80;;;14.60;73.40;;;;;;5020389;28;20098;-74
2022/11/16 09:38:44;;;;;;;3.83;1.70;;;14.60;75.00;;;;;;5053864;28;20037;-74
2022/11/16 09:41:33;;;;;;;7.63;2.60;;;14.40;74.70;;;;;;5053778;28;20025;-74
2022/11/16 09:44:32;;;;;;;4.85;1.92;;;14.20;75.70;;;;;;5053681;28;20133;-74
2022/11/16 09:47:39;;;;;;;4.35;1.60;;;14.20;77.50;;;;;;5053777;28;20033;-73
2022/11/16 09:50:45;;;;;;;4.80;1.83;;;13.80;77.20;;;;;;4954477;29;20067;-73
2022/11/16 09:53:59;;;;;;;6.07;1.75;;;13.70;78.20;;;;;;5051951;28;20029;-73
2022/11/16 09:56:35;;;;;;;5.63;1.95;;;13.50;80.00;;;;;;5053954;28;20022;-73
2022/11/16 09:59:04;;;;;;;5.00;1.50;;;13.50;80.50;;;;;;5036145;28;20036;-73
2022/11/16 10:01:38;;;;;;;7.45;1.27;;;13.40;80.30;;;;;;5053427;28;20029;-74
2022/11/16 10:04:28;;;;;;;5.47;1.55;;;13.30;79.80;;;;;;5053449;28;20092;-74
2022/11/16 10:07:21;;;;;;;6.43;1.60;;;13.10;79.90;;;;;;5053303;28;20017;-74
2022/11/16 10:09:48;;;;;;;4.57;1.77;;;13.10;81.80;;;;;;5035944;28;20021;-74
2022/11/16 10:12:42;;;;;;;5.85;1.70;;;13.10;81.10;;;;;;5053344;28;20025;-73
2022/11/16 10:15:32;;;;;;;5.47;2.03;;;13.10;81.70;;;;;;5035862;28;20022;-73
2022/11/16 10:18:07;;;;;;;7.40;2.20;;;13.20;82.30;;;;;;5035855;28;20031;-73
2022/11/16 10:20:44;;;;;;;6.57;2.45;;;13.20;79.70;;;;;;5053214;28;20049;-74
2022/11/16 10:23:27;;;;;;;12.30;2.53;;;13.20;80.50;;;;;;5053203;28;20025;-73
2022/11/16 10:26:03;;;;;;;10.13;2.80;;;13.20;80.80;;;;;;5052258;28;20048;-73
2022/11/16 10:28:57;;;;;;;7.05;2.50;;;13.20;80.30;;;;;;5053179;28;20101;-73
2022/11/16 10:31:38;;;;;;;8.68;2.40;;;13.20;79.20;;;;;;5053205;28;20036;-73
2022/11/16 10:34:17;;;;;;;5.47;1.98;;;13.10;80.60;;;;;;5035716;28;20030;-73
2022/11/16 10:39:52;;;;;;;3.42;1.67;;;13.20;79.40;;;;;;5052303;28;20033;-74
2022/11/16 10:42:38;;;;;;;8.32;1.98;;;13.20;78.30;;;;;;5052215;28;20022;-73
2022/11/16 10:45:10;;;;;;;6.30;2.35;;;13.10;79.70;;;;;;5052301;28;20073;-74
2022/11/16 10:47:45;;;;;;;4.00;2.17;;;13.10;80.40;;;;;;5034446;28;20496;-74
2022/11/16 10:50:23;;;;;;;6.68;2.33;;;13.20;80.20;;;;;;5052810;28;20017;-74
2022/11/16 10:52:48;;;;;;;5.38;1.95;;;13.30;79.40;;;;;;5052499;28;20036;-74
2022/11/16 10:55:14;;;;;;;6.35;2.53;;;13.30;79.40;;;;;;5035404;28;20468;-74
2022/11/16 10:57:58;;;;;;;4.90;2.13;;;13.30;79.10;;;;;;5052887;28;20024;-74
2022/11/16 11:00:44;;;;;;;5.72;1.85;;;13.40;78.20;;;;;;5052815;28;20025;-74
2022/11/16 11:03:10;;;;;;;8.25;1.98;;;13.30;78.50;;;;;;5052908;28;20025;-74
2022/11/16 11:05:46;;;;;;;3.47;1.77;;;13.30;78.80;;;;;;5052848;28;20040;-74
2022/11/16 11:08:11;;;;;;;5.22;1.90;;;13.30;78.80;;;;;;5052655;28;20021;-74
2022/11/16 11:10:40;;;;;;;4.35;1.90;;;13.40;78.10;;;;;;5035038;28;20057;-74
2022/11/16 11:13:11;;;;;;;3.08;1.50;;;13.50;78.80;;;;;;5052765;28;20022;-74
2022/11/16 11:15:39;;;;;;;7.38;1.70;;;13.60;78.30;;;;;;5035320;28;20374;-74
2022/11/16 11:18:12;;;;;;;7.35;1.77;;;13.60;77.30;;;;;;5052664;28;20032;-74
2022/11/16 11:20:40;;;;;;;7.30;1.92;;;13.70;77.10;;;;;;5055782;28;20029;-74
2022/11/16 11:23:20;;;;;;;4.43;1.75;;;13.80;78.60;;;;;;5056439;28;20018;-74
2022/11/16 11:25:56;;;;;;;4.90;1.52;;;14.00;76.90;;;;;;5056433;28;20029;-74
2022/11/16 11:28:38;;;;;;;5.25;1.50;;;14.10;76.50;;;;;;5038783;28;20113;-74
2022/11/16 11:31:25;;;;;;;6.70;1.77;;;14.00;75.20;;;;;;5025987;28;20040;-74
2022/11/16 11:33:54;;;;;;;4.22;1.58;;;13.80;75.60;;;;;;5056316;28;20087;-74
2022/11/16 11:36:45;;;;;;;3.78;1.40;;;13.60;76.30;;;;;;5056238;28;20041;-74
2022/11/16 11:39:11;;;;;;;6.63;1.30;;;13.50;76.70;;;;;;5055864;28;20045;-74
2022/11/16 11:41:42;;;;;;;5.30;1.50;;;13.40;77.80;;;;;;5056041;28;20030;-74
2022/11/16 11:44:19;;;;;;;4.97;1.50;;;13.40;77.70;;;;;;5038424;28;20485;-71
2022/11/16 11:46:56;;;;;;;4.05;1.23;;;13.40;78.60;;;;;;5056007;28;20022;-71
2022/11/16 11:49:28;;;;;;;5.90;1.40;;;13.40;78.80;;;;;;5038438;28;20048;-73
2022/11/16 11:51:57;;;;;;;3.85;2.00;;;13.50;79.00;;;;;;5055943;28;20062;-74
2022/11/16 11:54:27;;;;;;;2.55;1.38;;;13.70;77.50;;;;;;5055833;28;20022;-74
2022/11/16 11:56:52;;;;;;;6.25;1.40;;;13.70;76.10;;;;;;5038259;28;20025;-74
2022/11/16 11:59:22;;;;;;;6.05;1.38;;;13.70;76.50;;;;;;5038302;28;20117;-74
2022/11/16 12:02:13;;;;;;;2.63;0.80;;;13.70;76.30;;;;;;5055701;28;20041;-74
2022/11/16 12:04:53;;;;;;;6.40;1.73;;;13.60;75.60;;;;;;5038193;28;20025;-74
2022/11/16 12:07:31;;;;;;;4.50;1.10;;;13.60;76.60;;;;;;5038127;28;20028;-74
2022/11/16 12:10:24;;;;;;;3.72;1.33;;;13.50;76.20;;;;;;5055749;28;20036;-74
2022/11/16 12:13:11;;;;;;;4.43;1.00;;;13.40;77.20;;;;;;5055754;28;20018;-74
2022/11/16 12:15:53;;;;;;;3.53;1.30;;;13.40;75.80;;;;;;5038028;28;20040;-74
2022/11/16 12:18:40;;;;;;;4.68;1.40;;;13.40;77.10;;;;;;5055456;28;20084;-74
2022/11/16 12:21:13;;;;;;;6.15;1.55;;;13.30;76.30;;;;;;5055299;28;20087;-74
2022/11/16 12:24:05;;;;;;;3.55;1.10;;;13.30;76.80;;;;;;5055417;28;20014;-74
2022/11/16 12:26:36;;;;;;;6.35;1.23;;;13.40;76.60;;;;;;5024665;28;20057;-74
2022/11/16 12:29:24;;;;;;;4.38;1.40;;;13.30;76.10;;;;;;5055358;28;20117;-74
2022/11/16 12:32:09;;;;;;;4.13;1.27;;;13.30;76.70;;;;;;5054286;28;20029;-74
2022/11/16 12:34:55;;;;;;;3.70;1.30;;;13.30;76.90;;;;;;5055166;28;20054;-74
2022/11/16 12:37:30;;;;;;;4.85;1.27;;;13.30;76.80;;;;;;5055140;28;20112;-74
2022/11/16 12:40:17;;;;;;;4.50;1.40;;;13.30;76.10;;;;;;5037413;28;20025;-74
2022/11/16 12:43:09;;;;;;;6.43;1.40;;;13.40;77.40;;;;;;5054718;28;20026;-74
2022/11/16 12:45:55;;;;;;;;;;;13.50;76.90;;;;;;5055511;28;20049;-74
2022/11/16 12:48:40;;;;;;;2.75;1.27;;;13.60;75.90;;;;;;5004954;28;19905;-74
2022/11/16 12:51:26;;;;;;;4.00;1.20;;;13.70;76.30;;;;;;5054870;28;20373;-74
2022/11/16 12:54:24;;;;;;;3.90;1.20;;;13.80;77.30;;;;;;5054851;28;20033;-74
2022/11/16 12:57:13;;;;;;;4.90;1.10;;;13.80;75.70;;;;;;5000431;28;20088;-74
2022/11/16 13:00:05;;;;;;;5.75;1.17;;;13.80;75.20;;;;;;5054844;28;20089;-74
2022/11/16 13:02:59;;;;;;;3.25;1.27;;;13.80;73.20;;;;;;5041287;28;20041;-74
2022/11/16 13:06:01;;;;;;;6.25;1.20;;;13.80;73.70;;;;;;5053601;28;20461;-74
2022/11/16 13:09:04;;;;;;;4.13;0.90;;;13.90;73.20;;;;;;5054595;28;20036;-74
2022/11/16 13:11:31;;;;;;;;;;;13.80;72.80;;;;;;5037270;28;20072;-74
2022/11/16 13:14:03;;;;;;;6.25;1.20;;;13.80;73.20;;;;;;5054516;28;19968;-74
2022/11/16 13:16:29;;;;;;;3.67;1.05;;;13.80;74.40;;;;;;5054401;28;20028;-74
2022/11/16 13:18:58;;;;;;;4.82;1.08;;;13.80;73.40;;;;;;5054266;28;20045;-74
2022/11/16 13:22:02;;;;;;;3.63;1.55;;;13.80;73.50;;;;;;5036771;28;20029;-72
2022/11/16 13:24:33;;;;;;;2.78;1.00;;;13.90;73.10;;;;;;5054181;28;20026;-74
2022/11/16 13:27:18;;;;;;;4.32;1.40;;;13.90;74.10;;;;;;5054117;28;20026;-74
2022/11/16 13:30:21;;;;;;;2.90;1.17;;;13.90;74.30;;;;;;5054073;28;20017;-74
2022/11/16 13:33:20;;;;;;;4.55;1.20;;;13.90;72.90;;;;;;5051033;28;20045;-75
2022/11/16 13:35:46;;;;;;;4.35;1.10;;;13.80;74.50;;;;;;5054024;28;20056;-74
2022/11/16 13:38:12;;;;;;;3.95;0.80;;;13.70;74.50;;;;;;5036351;28;20041;-74
2022/11/16 13:40:39;;;;;;;3.10;1.08;;;13.80;75.60;;;;;;5053813;28;20037;-74
2022/11/16 13:43:10;;;;;;;3.08;0.88;;;13.90;74.20;;;;;;5053584;28;20045;-74
2022/11/16 13:45:59;;;;;;;4.88;0.95;;;13.90;73.40;;;;;;5053802;28;20057;-74
2022/11/16 13:48:33;;;;;;;5.93;0.95;;;13.90;75.40;;;;;;5053915;28;20084;-75
2022/11/16 13:51:02;;;;;;;2.53;0.73;;;14.00;73.80;;;;;;5036268;28;20053;-74